WetterOnline ( http://www.wetteronline.de )

Wetter aktuell Mülheim

Aktuelles Wetter: Essen (161m)

6-stündlich | Neueste Meldungen
Ortszeit Temperatur Wetter
Mi, 21.11. 1:00 1.1° C bewölkt
Di, 20.11. 19:00 1.6° C bedeckt
Di, 20.11. 13:00 3.4° C bedeckt
Di, 20.11. 7:00 2.2° C bedeckt
Di, 20.11. 1:00 2.7° C wolkenlos
Mo, 19.11. 19:00 2.9° C leicht bewölkt
Mo, 19.11. 13:00 4.7° C leicht bewölkt
Mo, 19.11. 7:00 4.2° C bedeckt
Ortszeit Temperatur Wetter
Mi, 21.11. 6:30 -0.3° C wolkenlos
Mi, 21.11. 6:20 -0.3° C wolkenlos
Mi, 21.11. 6:10 -0.4° C wolkenlos
Mi, 21.11. 6:00 0.1° C leicht bewölkt
Mi, 21.11. 5:50 0.1° C leicht bewölkt
Mi, 21.11. 5:40 0.1° C leicht bewölkt
Mi, 21.11. 5:30 -0.0° C leicht bewölkt
Mi, 21.11. 5:00 -0.2° C bewölkt
Mi, 21.11. 4:30 -0.1° C leicht bewölkt
Mi, 21.11. 4:00 0.1° C wolkig
Mi, 21.11. 3:30 0.3° C wolkig
Ortszeit Relative Feuchte Sichtweite
Mi, 21.11. 1:00 87% 15 km
Di, 20.11. 19:00 86% 21 km
Di, 20.11. 13:00 66% 24 km
Di, 20.11. 7:00 71% 23 km
Di, 20.11. 1:00 69% 35 km
Mo, 19.11. 19:00 80% >70 km
Mo, 19.11. 13:00 81% 55 km
Mo, 19.11. 7:00 86% 65 km
Ortszeit Relative Feuchte Sichtweite
Mi, 21.11. 6:30 91% 9 km
Mi, 21.11. 6:20 91% -
Mi, 21.11. 6:10 92% -
Mi, 21.11. 6:00 90% 11 km
Mi, 21.11. 5:50 90% -
Mi, 21.11. 5:40 90% -
Mi, 21.11. 5:30 91% 11 km
Mi, 21.11. 5:00 92% 9 km
Mi, 21.11. 4:30 92% 9 km
Mi, 21.11. 4:00 91% 10 km
Mi, 21.11. 3:30 90% 11 km
Ortszeit Niederschlagsmenge Niederschlagsart
Mi, 21.11. 1:00 0.0 l/m2 in 6 Std. -
Di, 20.11. 19:00 0.1 l/m2 in 12 Std. -
Di, 20.11. 13:00 0.1 l/m2 in 6 Std. Sprühregen, Niederschlag
Di, 20.11. 7:00 0.0 l/m2 in 12 Std. -
Di, 20.11. 1:00 0.0 l/m2 in 6 Std. -
Mo, 19.11. 19:00 1 l/m2 in 12 Std. Schnee, Regen
Mo, 19.11. 13:00 0.4 l/m2 in 6 Std. Regen
Mo, 19.11. 7:00 0.1 l/m2 in 12 Std. Regen
Ortszeit Niederschlagsmenge Niederschlagsart
Mi, 21.11. 6:30 0.0 l/m2 in 1 Std. -
Mi, 21.11. 6:20 keine Meldung -
Mi, 21.11. 6:10 keine Meldung -
Mi, 21.11. 6:00 0.0 l/m2 in 1 Std. -
Mi, 21.11. 5:50 keine Meldung -
Mi, 21.11. 5:40 keine Meldung -
Mi, 21.11. 5:30 0.0 l/m2 in 1 Std. -
Mi, 21.11. 5:00 0.0 l/m2 in 1 Std. -
Mi, 21.11. 4:30 0.0 l/m2 in 1 Std. -
Mi, 21.11. 4:00 0.0 l/m2 in 1 Std. -
Mi, 21.11. 3:30 0.0 l/m2 in 1 Std. -
Ortszeit Stärke Spitze Richtung
km/h Bft. km/h Grad Sektor
Mi, 21.11. 1:00 9 2 26 80° O
Di, 20.11. 19:00 14 3 40 80° O
Di, 20.11. 13:00 13 3 44 80° O
Di, 20.11. 7:00 22 4 58 80° O
Di, 20.11. 1:00 26 4 56 70° O
Mo, 19.11. 19:00 20 4 48 60° NO
Mo, 19.11. 13:00 17 3 48 70° O
Mo, 19.11. 7:00 20 4 33 50° NO
Ortszeit Stärke Spitze Richtung
km/h Bft. km/h Grad Sektor
Mi, 21.11. 6:30 7 2 11 70° O
Mi, 21.11. 6:20 7 2 - 70° O
Mi, 21.11. 6:10 7 2 - 40° NO
Mi, 21.11. 6:00 7 2 18 60° NO
Mi, 21.11. 5:50 7 2 - 60° NO
Mi, 21.11. 5:40 7 2 - 80° O
Mi, 21.11. 5:30 11 2 18 90° O
Mi, 21.11. 5:00 7 2 14 80° O
Mi, 21.11. 4:30 7 2 17 70° O
Mi, 21.11. 4:00 9 2 17 80° O
Mi, 21.11. 3:30 9 2 15 90° O
Ortszeit Untergrenze Bedeckung Gattung
total tief tief mittel hoch
Mi, 21.11. 1:00 2700 m 7/8 7/8 - - -
Di, 20.11. 19:00 270 m 8/8 8/8 - - -
Di, 20.11. 13:00 840 m 8/8 8/8 - - -
Di, 20.11. 7:00 810 m 8/8 8/8 - - -
Di, 20.11. 1:00 - 0/8 0/8 - - -
Mo, 19.11. 19:00 660 m 3/8 3/8 - - -
Mo, 19.11. 13:00 360 m 3/8 3/8 - - -
Mo, 19.11. 7:00 420 m 8/8 8/8 - - -
Ortszeit Bedeckungsgrad in Achtel und Wolkenuntergrenze
Mi, 21.11. 6:30 keine Wolken
Mi, 21.11. 6:20 keine Wolken
Mi, 21.11. 6:10 keine Wolken
Mi, 21.11. 6:00 1(1050m)
Mi, 21.11. 5:50 1(1050m) 2(6600m)
Mi, 21.11. 5:40 1(1080m) 4(6600m)
Mi, 21.11. 5:30 1(1110m) 6(6900m)
Mi, 21.11. 5:00 7(6900m)
Mi, 21.11. 4:30 6(7200m)
Mi, 21.11. 4:00 5(6900m) 5(6900m)
Mi, 21.11. 3:30 5(6600m)
Ortszeit Luftdruck NN (hPa) Tendenz (hPa in 3 Std.)
Mi, 21.11. 1:00 1011 + 1,0
Di, 20.11. 19:00 1009 + 0,3
Di, 20.11. 13:00 1009 - 1,0
Di, 20.11. 7:00 1011 - 1,0
Di, 20.11. 1:00 1014 - 1,2
Mo, 19.11. 19:00 1016 - 1,0
Mo, 19.11. 13:00 1019 - 1,6
Mo, 19.11. 7:00 1022 - 1,4
Ortszeit Luftdruck NN (hPa) Tendenz (hPa in 3 Std.)
Mi, 21.11. 6:30 1014 + 1,8
Mi, 21.11. 6:20 1014 keine Meldung
Mi, 21.11. 6:10 1014 keine Meldung
Mi, 21.11. 6:00 1014 + 1,7
Mi, 21.11. 5:50 1014 keine Meldung
Mi, 21.11. 5:40 1014 keine Meldung
Mi, 21.11. 5:30 1014 + 1,6
Mi, 21.11. 5:00 1013 + 1,5
Mi, 21.11. 4:30 1013 + 1,6
Mi, 21.11. 4:00 1013 + 1,2
Mi, 21.11. 3:30 1013 + 1,0
Ortszeit Schneehöhe (cm)
Mi, 21.11. 1:00 0
Di, 20.11. 19:00 0
Di, 20.11. 13:00 0
Di, 20.11. 7:00 0
Di, 20.11. 1:00 0
Mo, 19.11. 19:00 0
Mo, 19.11. 13:00 0
Mo, 19.11. 7:00 0
Ortszeit Schneehöhe (cm)
Mi, 21.11. 6:30 0
Mi, 21.11. 6:20 0
Mi, 21.11. 6:10 0
Mi, 21.11. 6:00 0
Mi, 21.11. 5:50 0
Mi, 21.11. 5:40 0
Mi, 21.11. 5:30 0
Mi, 21.11. 5:00 0
Mi, 21.11. 4:30 0
Mi, 21.11. 4:00 0
Mi, 21.11. 3:30 0
Link zu dieser Seite / Seite empfehlen

Das Wetter in ...